Terminal Aerodrome Forecast
Issued by NWS Charleston, WV

Current Version | Previous Version | Graphics & Text | Print | Product List | Glossary On
Versions: 1 2 3 4 5 6 7 8 9 10 11 12 13 14 15 16 17 18 19 20 21 22
019
FTUS41 KRLX 132339
TAFCRW
TAF
KCRW 132339Z 1400/1424 20006KT P6SM BKN090
     FM140300 23011G17KT P6SM BKN045
     FM140600 25011G17KT P6SM OVC025
     FM141100 28008KT P6SM BKN021
     FM142000 30003KT P6SM BKN040=

USA.gov is the U.S. government's official web portal to all federal, state and local government web resources and services.